createdAt,value
2018-04-25T00:00:34.653Z,8.37
2018-04-25T00:03:02.554Z,6.50
2018-04-25T00:05:30.473Z,6.93
2018-04-25T00:07:58.381Z,5.63
2018-04-25T00:10:26.289Z,6.60
2018-04-25T00:12:54.185Z,7.90
2018-04-25T00:15:22.072Z,6.43
2018-04-25T00:17:49.970Z,7.60
2018-04-25T00:20:17.870Z,8.53
2018-04-25T00:22:45.754Z,8.07
2018-04-25T00:25:13.670Z,9.10
2018-04-25T00:27:41.573Z,9.40
2018-04-25T00:30:09.485Z,9.20
2018-04-25T00:32:37.384Z,9.00
2018-04-25T00:35:05.281Z,9.67
2018-04-25T00:37:33.183Z,11.60
2018-04-25T00:40:01.091Z,13.30
2018-04-25T00:42:29.003Z,14.60
2018-04-25T00:44:56.898Z,14.57
2018-04-25T00:47:24.802Z,17.70
2018-04-25T00:49:52.694Z,18.83
2018-04-25T00:52:20.580Z,22.43
2018-04-25T00:54:48.521Z,20.70
2018-04-25T00:57:16.413Z,22.07
2018-04-25T00:59:44.318Z,22.43
2018-04-25T01:02:12.425Z,25.87
2018-04-25T01:04:40.326Z,25.63
2018-04-25T01:07:08.269Z,27.30
2018-04-25T01:09:36.163Z,27.43
2018-04-25T01:12:04.120Z,26.77
2018-04-25T01:14:31.954Z,27.03
2018-04-25T01:16:59.837Z,28.27
2018-04-25T01:19:27.742Z,29.47
2018-04-25T01:21:55.638Z,28.07
2018-04-25T01:24:23.521Z,30.90
2018-04-25T01:26:51.436Z,32.07
2018-04-25T01:29:19.329Z,29.07
2018-04-25T01:31:47.278Z,30.57
2018-04-25T01:34:21.291Z,32.90
2018-04-25T01:39:49.750Z,31.60
2018-04-25T01:42:17.665Z,31.73
2018-04-25T01:44:51.023Z,33.03
2018-04-25T01:47:19.850Z,33.97
2018-04-25T01:49:49.739Z,35.57
2018-04-25T01:52:23.929Z,36.43
2018-04-25T01:54:57.922Z,36.00
2018-04-25T01:57:32.069Z,37.70
2018-04-25T02:00:06.138Z,37.80
2018-04-25T02:02:34.191Z,38.63
2018-04-25T02:05:02.099Z,41.90
2018-04-25T02:07:30.002Z,41.10
2018-04-25T02:09:57.887Z,41.57
2018-04-25T02:12:25.791Z,41.87
2018-04-25T02:14:53.709Z,43.60
2018-04-25T02:17:21.649Z,44.10
2018-04-25T02:19:49.573Z,44.40
2018-04-25T02:22:17.479Z,43.90
2018-04-25T02:24:45.369Z,45.87
2018-04-25T02:27:13.261Z,50.37
2018-04-25T02:29:41.149Z,48.83
2018-04-25T02:32:09.070Z,47.87
2018-04-25T02:34:36.962Z,47.50
2018-04-25T02:37:04.877Z,49.37
2018-04-25T02:39:32.773Z,49.97
2018-04-25T02:42:00.685Z,48.63
2018-04-25T02:44:28.594Z,48.37
2018-04-25T02:46:56.497Z,44.53
2018-04-25T02:49:24.413Z,48.43
2018-04-25T02:51:52.331Z,50.57
2018-04-25T02:54:20.230Z,50.30
2018-04-25T02:56:48.146Z,52.63
2018-04-25T02:59:16.053Z,52.77
2018-04-25T03:01:43.953Z,51.00
2018-04-25T03:04:12.062Z,53.80
2018-04-25T03:06:39.986Z,51.33
2018-04-25T03:09:07.874Z,56.30
2018-04-25T03:11:35.769Z,57.30
2018-04-25T03:14:03.694Z,56.07
2018-04-25T03:16:31.645Z,61.00
2018-04-25T03:18:59.558Z,61.70
2018-04-25T03:21:27.461Z,61.27
2018-04-25T03:23:55.374Z,58.47
2018-04-25T03:26:23.291Z,64.40
2018-04-25T03:28:51.177Z,58.33
2018-04-25T03:31:19.085Z,62.40
2018-04-25T03:33:47.014Z,59.03
2018-04-25T03:36:15.386Z,62.83
2018-04-25T03:38:43.284Z,59.20
2018-04-25T03:41:11.186Z,61.17
2018-04-25T03:43:39.102Z,58.40
2018-04-25T03:46:07.021Z,60.20
2018-04-25T03:48:35.165Z,60.40
2018-04-25T03:51:03.070Z,58.30
2018-04-25T03:53:30.969Z,58.67
2018-04-25T03:55:58.885Z,56.50
2018-04-25T03:58:26.795Z,57.10
2018-04-25T04:00:54.714Z,57.70
2018-04-25T04:03:22.605Z,56.40
2018-04-25T04:05:50.887Z,57.83
2018-04-25T04:08:18.791Z,54.93
2018-04-25T04:10:53.657Z,57.80
2018-04-25T04:13:21.567Z,57.17
2018-04-25T04:15:49.465Z,56.40
2018-04-25T04:18:17.362Z,56.43
2018-04-25T04:20:45.262Z,54.00
2018-04-25T04:23:13.157Z,52.43
2018-04-25T04:25:41.040Z,54.27
2018-04-25T04:28:08.953Z,54.67
2018-04-25T04:30:36.835Z,53.70
2018-04-25T04:33:04.746Z,54.87
2018-04-25T04:35:32.646Z,55.50
2018-04-25T04:38:00.560Z,53.50
2018-04-25T04:40:28.483Z,50.33
2018-04-25T04:42:56.375Z,55.10
2018-04-25T04:45:24.273Z,50.20
2018-04-25T04:47:52.161Z,51.50
2018-04-25T04:50:20.058Z,52.03
2018-04-25T04:52:47.998Z,50.13
2018-04-25T04:55:15.902Z,50.40
2018-04-25T04:57:43.834Z,50.80
2018-04-25T05:00:11.729Z,49.67
2018-04-25T05:02:39.613Z,49.47
2018-04-25T05:05:07.512Z,47.77
2018-04-25T05:07:35.630Z,51.37
2018-04-25T05:10:03.524Z,49.73
2018-04-25T05:12:31.413Z,47.77
2018-04-25T05:14:59.324Z,48.50
2018-04-25T05:17:27.210Z,46.50
2018-04-25T05:19:55.119Z,44.93
2018-04-25T05:22:23.058Z,44.30
2018-04-25T05:24:50.947Z,44.30
2018-04-25T05:27:18.858Z,45.33
2018-04-25T05:29:46.751Z,46.13
2018-04-25T05:32:14.731Z,45.13
2018-04-25T05:34:42.539Z,42.97
2018-04-25T05:37:10.446Z,43.33
2018-04-25T05:39:38.338Z,43.90
2018-04-25T05:42:06.223Z,42.17
2018-04-25T05:44:34.121Z,44.33
2018-04-25T05:47:02.013Z,41.77
2018-04-25T05:49:30.090Z,40.37
2018-04-25T05:51:57.981Z,41.80
2018-04-25T05:54:25.882Z,40.77
2018-04-25T05:56:53.778Z,38.23
2018-04-25T05:59:21.666Z,39.37
2018-04-25T06:01:49.565Z,36.67
2018-04-25T06:04:17.556Z,37.93
2018-04-25T06:06:45.545Z,37.90
2018-04-25T06:09:13.618Z,35.97
2018-04-25T06:11:41.545Z,35.50
2018-04-25T06:14:09.454Z,34.23
2018-04-25T06:16:37.346Z,32.27
2018-04-25T06:19:05.254Z,29.90
2018-04-25T06:21:33.148Z,32.10
2018-04-25T06:24:01.078Z,27.80
2018-04-25T06:26:29.013Z,26.90
2018-04-25T06:28:56.889Z,25.70
2018-04-25T06:31:24.781Z,24.63
2018-04-25T06:33:52.666Z,25.77
2018-04-25T06:36:20.587Z,27.50
2018-04-25T06:38:48.508Z,24.10
2018-04-25T06:41:16.514Z,22.47
2018-04-25T06:43:44.329Z,24.10
2018-04-25T06:46:12.225Z,20.87
2018-04-25T06:48:40.102Z,20.43
2018-04-25T06:51:07.994Z,16.70
2018-04-25T06:53:35.886Z,14.93
2018-04-25T06:56:03.790Z,15.63
2018-04-25T06:58:31.699Z,16.00
2018-04-25T07:00:59.589Z,15.10
2018-04-25T07:03:27.474Z,14.60
2018-04-25T07:05:55.370Z,16.97
2018-04-25T07:08:23.274Z,16.37
2018-04-25T07:10:51.329Z,19.03
2018-04-25T07:13:19.241Z,20.60
2018-04-25T07:15:47.170Z,18.87
2018-04-25T07:18:15.062Z,19.70
2018-04-25T07:20:42.951Z,19.80
2018-04-25T07:23:10.845Z,17.23
2018-04-25T07:25:38.743Z,16.10
2018-04-25T07:28:06.650Z,14.97
2018-04-25T07:30:34.541Z,11.90
2018-04-25T07:33:02.460Z,11.00
2018-04-25T07:35:30.383Z,11.70
2018-04-25T07:37:58.242Z,10.40
2018-04-25T07:40:26.297Z,9.40
2018-04-25T07:42:54.185Z,8.90
2018-04-25T07:45:22.069Z,7.30
2018-04-25T07:47:49.983Z,6.77
2018-04-25T07:50:17.897Z,5.97
2018-04-25T07:52:45.938Z,4.77
2018-04-25T07:55:13.831Z,4.97
2018-04-25T07:57:41.783Z,4.70
2018-04-25T08:00:09.643Z,4.63
2018-04-25T08:02:37.542Z,4.93
2018-04-25T08:05:05.432Z,4.43
2018-04-25T08:07:33.346Z,4.30
2018-04-25T08:10:01.262Z,4.20
2018-04-25T08:12:35.495Z,4.60
2018-04-25T08:15:09.881Z,4.70
2018-04-25T08:17:53.776Z,4.67
2018-04-25T08:20:27.661Z,4.30
2018-04-25T08:22:55.554Z,4.70
2018-04-25T08:25:23.461Z,4.50
2018-04-25T08:27:51.414Z,4.50
2018-04-25T08:30:19.314Z,4.40
2018-04-25T08:32:47.263Z,3.90
2018-04-25T08:35:15.181Z,4.13
2018-04-25T08:37:43.089Z,4.50
2018-04-25T08:40:10.990Z,4.63
2018-04-25T08:42:38.887Z,4.20
2018-04-25T08:45:06.837Z,3.67
2018-04-25T08:47:34.710Z,3.10
2018-04-25T08:50:02.601Z,3.30
2018-04-25T08:52:30.501Z,3.10
2018-04-25T08:54:58.425Z,3.27
2018-04-25T08:57:26.338Z,2.80
2018-04-25T08:59:54.245Z,3.50
2018-04-25T09:02:22.157Z,3.00
2018-04-25T09:04:50.051Z,2.80
2018-04-25T09:07:17.957Z,3.07
2018-04-25T09:09:45.854Z,2.90
2018-04-25T09:12:13.772Z,3.23
2018-04-25T09:14:41.858Z,3.03
2018-04-25T09:17:09.766Z,2.80
2018-04-25T09:19:37.655Z,2.07
2018-04-25T09:22:05.577Z,1.83
2018-04-25T09:24:33.546Z,1.53
2018-04-25T09:27:01.408Z,2.00
2018-04-25T09:29:29.289Z,1.63
2018-04-25T09:31:57.177Z,3.33
2018-04-25T09:34:25.099Z,2.03
2018-04-25T09:36:52.975Z,2.27
2018-04-25T09:39:20.861Z,1.50
2018-04-25T09:41:48.946Z,2.37
2018-04-25T09:44:16.853Z,2.83
2018-04-25T09:46:44.990Z,2.70
2018-04-25T09:49:12.881Z,2.83
2018-04-25T09:51:40.808Z,2.60
2018-04-25T09:54:08.678Z,3.17
2018-04-25T09:56:36.557Z,2.80
2018-04-25T09:59:04.446Z,3.60
2018-04-25T10:01:32.369Z,3.33
2018-04-25T10:04:00.286Z,3.00
2018-04-25T10:06:28.177Z,3.43
2018-04-25T10:08:56.069Z,3.77
2018-04-25T10:11:24.061Z,4.10
2018-04-25T10:13:51.946Z,4.30
2018-04-25T10:16:20.089Z,4.70
2018-04-25T10:18:48.006Z,3.90
2018-04-25T10:21:15.909Z,4.90
2018-04-25T10:23:43.849Z,5.00
2018-04-25T10:26:11.696Z,4.63
2018-04-25T10:28:39.587Z,4.50
2018-04-25T10:31:07.493Z,4.40
2018-04-25T10:33:35.395Z,3.50
2018-04-25T10:36:03.282Z,2.80
2018-04-25T10:38:31.169Z,3.07
2018-04-25T10:40:59.077Z,2.30
2018-04-25T10:43:26.982Z,2.13
2018-04-25T10:45:54.942Z,2.57
2018-04-25T10:48:22.829Z,3.87
2018-04-25T10:50:50.729Z,5.47
2018-04-25T10:53:18.618Z,5.37
2018-04-25T10:55:46.510Z,4.03
2018-04-25T10:58:14.425Z,3.00
2018-04-25T11:00:42.313Z,2.67
2018-04-25T11:03:10.221Z,2.80
2018-04-25T11:05:38.110Z,1.80
2018-04-25T11:08:06.017Z,1.73
2018-04-25T11:10:33.911Z,1.30
2018-04-25T11:13:08.769Z,1.63
2018-04-25T11:15:36.698Z,1.10
2018-04-25T11:18:04.761Z,1.13
2018-04-25T11:20:32.645Z,1.10
2018-04-25T11:23:00.545Z,0.90
2018-04-25T11:25:28.424Z,1.20
2018-04-25T11:27:56.329Z,1.17
2018-04-25T11:30:24.217Z,1.23
2018-04-25T11:32:52.150Z,1.20
2018-04-25T11:35:20.057Z,1.40
2018-04-25T11:37:47.968Z,1.20
2018-04-25T11:40:15.869Z,1.00
2018-04-25T11:42:43.761Z,1.30
2018-04-25T11:45:11.660Z,1.23
2018-04-25T11:47:39.561Z,1.27
2018-04-25T11:50:07.494Z,0.90
2018-04-25T11:52:35.388Z,1.00
2018-04-25T11:55:03.293Z,0.93
2018-04-25T11:57:31.191Z,1.10
2018-04-25T11:59:59.107Z,1.40
2018-04-25T12:02:27.028Z,1.47
2018-04-25T12:04:55.002Z,1.57
2018-04-25T12:07:22.837Z,1.10
2018-04-25T12:09:50.761Z,1.40
2018-04-25T12:12:18.694Z,1.03
2018-04-25T12:14:46.643Z,0.93
2018-04-25T12:17:14.521Z,1.50
2018-04-25T12:19:42.593Z,1.10
2018-04-25T12:22:10.522Z,1.27
2018-04-25T12:24:38.419Z,1.23
2018-04-25T12:27:06.312Z,0.93
2018-04-25T12:29:34.240Z,1.30
2018-04-25T12:32:02.121Z,1.20
2018-04-25T12:34:30.022Z,1.50
2018-04-25T12:36:57.926Z,1.23
2018-04-25T12:39:25.872Z,1.50
2018-04-25T12:41:53.762Z,2.40
2018-04-25T12:44:21.666Z,1.33
2018-04-25T12:46:49.566Z,1.87
2018-04-25T12:49:17.465Z,1.40
2018-04-25T12:51:45.358Z,1.47
2018-04-25T12:54:13.264Z,2.20
2018-04-25T12:56:41.202Z,1.60
2018-04-25T12:59:09.105Z,1.67
2018-04-25T13:01:37.106Z,1.50
2018-04-25T13:04:04.913Z,1.50
2018-04-25T13:06:32.814Z,2.10
2018-04-25T13:09:00.804Z,1.30
2018-04-25T13:11:28.639Z,1.70
2018-04-25T13:13:56.557Z,1.50
2018-04-25T13:16:24.462Z,1.33
2018-04-25T13:18:52.367Z,1.40
2018-04-25T13:21:20.519Z,1.53
2018-04-25T13:23:48.413Z,1.13
2018-04-25T13:26:16.329Z,1.10
2018-04-25T13:28:44.249Z,1.50
2018-04-25T13:31:12.154Z,1.30
2018-04-25T13:33:40.080Z,1.83
2018-04-25T13:36:07.973Z,1.70
2018-04-25T13:38:35.865Z,2.17
2018-04-25T13:41:03.769Z,2.30
2018-04-25T13:43:31.685Z,1.77
2018-04-25T13:45:59.613Z,2.40
2018-04-25T13:48:27.511Z,1.63
2018-04-25T13:50:55.425Z,2.00
2018-04-25T13:53:23.371Z,2.10
2018-04-25T13:55:58.193Z,2.00
2018-04-25T13:58:26.245Z,3.20
2018-04-25T14:00:54.151Z,2.37
2018-04-25T14:03:22.041Z,2.00
2018-04-25T14:05:50.044Z,2.20
2018-04-25T14:08:17.895Z,1.73
2018-04-25T14:10:45.843Z,1.37
2018-04-25T14:13:13.748Z,2.00
2018-04-25T14:15:41.714Z,1.80
2018-04-25T14:18:09.552Z,1.63
2018-04-25T14:20:37.447Z,1.33
2018-04-25T14:23:05.500Z,1.50
2018-04-25T14:25:33.405Z,1.40
2018-04-25T14:28:01.298Z,1.93
2018-04-25T14:30:29.243Z,1.77
2018-04-25T14:32:57.134Z,1.90
2018-04-25T14:35:25.034Z,1.90
2018-04-25T14:37:52.953Z,1.47
2018-04-25T14:40:20.858Z,1.60
2018-04-25T14:42:48.770Z,2.03
2018-04-25T14:45:16.679Z,1.50
2018-04-25T14:47:44.706Z,1.67
2018-04-25T14:50:12.618Z,1.60
2018-04-25T14:52:40.533Z,0.90
2018-04-25T14:55:08.443Z,1.70
2018-04-25T14:57:36.335Z,1.57
2018-04-25T15:00:04.231Z,1.40
2018-04-25T15:02:32.142Z,1.07
2018-04-25T15:05:00.038Z,1.60
2018-04-25T15:07:27.958Z,1.67
2018-04-25T15:09:55.877Z,1.93
2018-04-25T15:12:23.773Z,1.03
2018-04-25T15:14:51.669Z,2.20
2018-04-25T15:17:19.573Z,1.27
2018-04-25T15:19:47.558Z,2.30
2018-04-25T15:22:15.410Z,1.17
2018-04-25T15:24:43.461Z,1.70
2018-04-25T15:27:11.357Z,1.27
2018-04-25T15:29:39.262Z,2.40
2018-04-25T15:32:07.157Z,1.60
2018-04-25T15:34:35.064Z,1.17
2018-04-25T15:37:02.949Z,1.60
2018-04-25T15:39:30.849Z,2.00
2018-04-25T15:41:58.918Z,1.90
2018-04-25T15:44:26.836Z,2.20
2018-04-25T15:46:54.729Z,1.43
2018-04-25T15:49:22.622Z,2.10
2018-04-25T15:51:50.529Z,1.37
2018-04-25T15:54:18.454Z,1.83
2018-04-25T15:56:46.341Z,2.07
2018-04-25T15:59:14.258Z,2.00
2018-04-25T16:01:42.149Z,1.73
2018-04-25T16:04:10.056Z,1.90
2018-04-25T16:06:37.929Z,1.87
2018-04-25T16:09:05.833Z,2.30
2018-04-25T16:11:33.734Z,2.30
2018-04-25T16:14:01.666Z,1.93
2018-04-25T16:16:29.569Z,1.70
2018-04-25T16:18:57.494Z,1.80
2018-04-25T16:21:25.581Z,1.70
2018-04-25T16:23:53.499Z,1.50
2018-04-25T16:26:21.601Z,2.30
2018-04-25T16:28:49.546Z,1.87
2018-04-25T16:31:24.522Z,1.93
2018-04-25T16:33:52.454Z,1.33
2018-04-25T16:36:20.345Z,1.60
2018-04-25T16:38:48.257Z,1.60
2018-04-25T16:41:16.162Z,1.80
2018-04-25T16:43:44.055Z,2.17
2018-04-25T16:46:11.964Z,1.73
2018-04-25T16:48:39.865Z,1.87
2018-04-25T16:51:07.804Z,1.90
2018-04-25T16:53:35.701Z,1.63
2018-04-25T16:56:03.613Z,1.73
2018-04-25T16:58:31.514Z,2.27
2018-04-25T17:00:59.412Z,1.70
2018-04-25T17:03:27.549Z,1.73
2018-04-25T17:05:55.456Z,1.07
2018-04-25T17:08:23.393Z,1.90
2018-04-25T17:10:51.318Z,2.60
2018-04-25T17:13:19.205Z,1.83
2018-04-25T17:15:47.142Z,1.87
2018-04-25T17:18:15.050Z,1.63
2018-04-25T17:20:42.966Z,1.90
2018-04-25T17:23:10.857Z,3.20
2018-04-25T17:25:38.765Z,3.13
2018-04-25T17:28:06.845Z,4.53
2018-04-25T17:30:34.745Z,3.10
2018-04-25T17:33:02.638Z,3.70
2018-04-25T17:35:30.546Z,3.57
2018-04-25T17:37:58.457Z,3.57
2018-04-25T17:40:26.350Z,2.37
2018-04-25T17:42:54.348Z,2.20
2018-04-25T17:45:22.164Z,2.57
2018-04-25T17:47:50.061Z,2.77
2018-04-25T17:50:17.966Z,2.20
2018-04-25T17:52:45.866Z,2.70
2018-04-25T17:55:14.037Z,5.90
2018-04-25T17:57:41.936Z,6.80
2018-04-25T18:00:09.846Z,4.10
2018-04-25T18:02:37.752Z,3.17
2018-04-25T18:05:05.650Z,2.90
2018-04-25T18:07:33.558Z,2.77
2018-04-25T18:10:01.463Z,2.23
2018-04-25T18:12:29.422Z,2.80
2018-04-25T18:14:57.345Z,2.67
2018-04-25T18:17:25.258Z,3.10
2018-04-25T18:19:53.158Z,3.77
2018-04-25T18:22:21.089Z,3.70
2018-04-25T18:24:48.990Z,3.50
2018-04-25T18:27:16.912Z,4.30
2018-04-25T18:29:44.992Z,4.60
2018-04-25T18:32:12.928Z,3.40
2018-04-25T18:34:40.823Z,3.60
2018-04-25T18:37:08.775Z,5.53
2018-04-25T18:39:36.674Z,5.93
2018-04-25T18:42:04.582Z,5.50
2018-04-25T18:44:32.495Z,5.10
2018-04-25T18:47:00.412Z,4.03
2018-04-25T18:49:28.385Z,3.73
2018-04-25T18:51:56.215Z,3.13
2018-04-25T18:54:24.122Z,3.77
2018-04-25T18:56:52.019Z,4.30
2018-04-25T18:59:19.916Z,5.00
2018-04-25T19:01:47.810Z,4.43
2018-04-25T19:06:39.306Z,3.33
2018-04-25T19:09:07.199Z,3.13
2018-04-25T19:11:35.098Z,2.90
2018-04-25T19:14:02.990Z,2.20
2018-04-25T19:16:30.889Z,2.00
2018-04-25T19:18:58.793Z,2.30
2018-04-25T19:21:26.726Z,2.57
2018-04-25T19:23:54.641Z,3.40
2018-04-25T19:26:22.542Z,3.07
2018-04-25T19:28:50.454Z,3.00
2018-04-25T19:31:18.589Z,3.20
2018-04-25T19:33:46.500Z,3.90
2018-04-25T19:36:14.383Z,4.40
2018-04-25T19:38:42.266Z,3.43
2018-04-25T19:41:10.187Z,2.70
2018-04-25T19:43:38.093Z,3.83
2018-04-25T19:46:06.030Z,4.10
2018-04-25T19:48:33.915Z,2.80
2018-04-25T19:51:01.824Z,2.90
2018-04-25T19:53:29.717Z,2.60
2018-04-25T19:55:57.614Z,2.57
2018-04-25T19:58:25.505Z,2.63
2018-04-25T20:00:53.405Z,3.20
2018-04-25T20:03:21.334Z,4.70
2018-04-25T20:05:49.246Z,2.97
2018-04-25T20:08:17.149Z,3.43
2018-04-25T20:10:45.055Z,2.50
2018-04-25T20:13:12.970Z,2.30
2018-04-25T20:15:40.865Z,2.10
2018-04-25T20:18:08.755Z,2.00
2018-04-25T20:20:36.662Z,1.70
2018-04-25T20:23:04.570Z,1.57
2018-04-25T20:25:32.467Z,1.43
2018-04-25T20:28:00.367Z,2.10
2018-04-25T20:30:28.277Z,1.83
2018-04-25T20:32:56.432Z,1.33
2018-04-25T20:35:24.343Z,1.10
2018-04-25T20:37:52.250Z,1.10
2018-04-25T20:40:20.137Z,1.73
2018-04-25T20:42:48.037Z,1.80
2018-04-25T20:45:15.947Z,1.40
2018-04-25T20:47:43.854Z,2.30
2018-04-25T20:50:11.750Z,2.80
2018-04-25T20:52:39.654Z,1.83
2018-04-25T20:55:07.565Z,2.10
2018-04-25T20:57:35.469Z,2.70
2018-04-25T21:00:03.365Z,2.73
2018-04-25T21:02:31.322Z,2.13
2018-04-25T21:04:59.175Z,2.40
2018-04-25T21:07:27.065Z,2.43
2018-04-25T21:09:54.957Z,2.60
2018-04-25T21:12:22.866Z,2.27
2018-04-25T21:14:50.774Z,2.47
2018-04-25T21:17:18.666Z,2.50
2018-04-25T21:19:46.570Z,2.67
2018-04-25T21:22:14.479Z,2.67
2018-04-25T21:24:42.430Z,2.73
2018-04-25T21:27:10.345Z,2.90
2018-04-25T21:29:38.258Z,3.10
2018-04-25T21:32:13.270Z,3.10
2018-04-25T21:34:41.328Z,3.33
2018-04-25T21:37:09.221Z,3.00
2018-04-25T21:39:37.125Z,3.63
2018-04-25T21:42:05.031Z,3.23
2018-04-25T21:44:32.926Z,3.40
2018-04-25T21:47:00.828Z,3.73
2018-04-25T21:49:28.723Z,3.20
2018-04-25T21:51:56.628Z,3.97
2018-04-25T21:54:24.561Z,4.20
2018-04-25T21:56:52.454Z,3.90
2018-04-25T21:59:20.349Z,3.80
2018-04-25T22:01:48.241Z,4.43
2018-04-25T22:04:16.138Z,3.93
2018-04-25T22:06:44.050Z,3.90
2018-04-25T22:09:11.946Z,4.83
2018-04-25T22:11:39.847Z,4.20
2018-04-25T22:14:07.748Z,3.87
2018-04-25T22:16:35.662Z,4.63
2018-04-25T22:19:03.576Z,4.00
2018-04-25T22:21:31.485Z,4.70
2018-04-25T22:23:59.388Z,4.80
2018-04-25T22:26:27.279Z,5.30
2018-04-25T22:28:55.174Z,5.07
2018-04-25T22:31:23.083Z,5.13
2018-04-25T22:33:50.997Z,5.23
2018-04-25T22:36:19.117Z,5.93
2018-04-25T22:38:47.010Z,5.90
2018-04-25T22:41:14.929Z,5.30
2018-04-25T22:43:42.809Z,6.37
2018-04-25T22:46:10.729Z,6.33
2018-04-25T22:48:38.637Z,6.20
2018-04-25T22:51:06.546Z,6.27
2018-04-25T22:53:34.450Z,6.63
2018-04-25T22:56:02.358Z,7.00
2018-04-25T22:58:30.298Z,7.53
2018-04-25T23:00:58.173Z,7.60
2018-04-25T23:03:26.074Z,6.63
2018-04-25T23:05:53.981Z,7.97
2018-04-25T23:08:21.982Z,8.23
2018-04-25T23:10:49.773Z,7.07
2018-04-25T23:13:17.684Z,7.70
2018-04-25T23:15:45.585Z,7.20
2018-04-25T23:18:13.473Z,7.63
2018-04-25T23:20:41.375Z,7.67
2018-04-25T23:23:09.270Z,7.60
2018-04-25T23:25:37.161Z,7.90
2018-04-25T23:28:05.069Z,7.80
2018-04-25T23:30:32.978Z,7.53
2018-04-25T23:33:00.879Z,7.60
2018-04-25T23:35:28.780Z,7.93
2018-04-25T23:37:56.955Z,8.43
2018-04-25T23:40:24.870Z,8.97
2018-04-25T23:42:52.769Z,8.80
2018-04-25T23:45:20.694Z,8.00
2018-04-25T23:47:48.606Z,7.77
2018-04-25T23:50:16.508Z,7.97
2018-04-25T23:52:44.405Z,7.07
2018-04-25T23:55:12.317Z,8.10
2018-04-25T23:57:40.410Z,7.83
